createdAt,value
2022-09-03T00:01:55.806Z,97543.50
2022-09-03T00:04:44.929Z,97525.13
2022-09-03T00:07:58.253Z,97529.19
2022-09-03T00:10:41.327Z,97536.25
2022-09-03T00:13:14.183Z,97528.91
2022-09-03T00:15:43.898Z,97534.13
2022-09-03T00:19:02.760Z,97533.59
2022-09-03T00:21:52.835Z,97532.88
2022-09-03T00:24:27.506Z,97524.72
2022-09-03T00:27:16.336Z,97523.19
2022-09-03T00:29:55.245Z,97525.13
2022-09-03T00:32:33.440Z,97507.84
2022-09-03T00:35:16.142Z,97500.91
2022-09-03T00:37:47.191Z,97496.47
2022-09-03T00:40:34.024Z,97502.03
2022-09-03T00:43:17.071Z,97506.31
2022-09-03T00:45:55.219Z,97504.78
2022-09-03T00:48:29.916Z,97505.88
2022-09-03T00:51:18.118Z,97499.06
2022-09-03T00:54:00.420Z,97506.34
2022-09-03T00:56:39.725Z,97507.75
2022-09-03T00:59:26.508Z,97513.63
2022-09-03T01:02:10.408Z,97505.28
2022-09-03T01:04:54.348Z,97508.38
2022-09-03T01:07:38.921Z,97511.81
2022-09-03T01:10:27.251Z,97515.16
2022-09-03T01:13:06.217Z,97515.38
2022-09-03T01:15:46.773Z,97508.56
2022-09-03T01:18:27.666Z,97507.50
2022-09-03T01:21:15.102Z,97503.91
2022-09-03T01:24:46.641Z,97505.97
2022-09-03T01:27:33.377Z,97506.19
2022-09-03T01:30:09.343Z,97502.47
2022-09-03T01:32:48.118Z,97506.72
2022-09-03T01:35:30.795Z,97502.88
2022-09-03T01:38:17.507Z,97501.94
2022-09-03T01:41:23.935Z,97505.03
2022-09-03T01:44:05.064Z,97503.38
2022-09-03T01:46:41.521Z,97517.28
2022-09-03T01:49:22.754Z,97516.28
2022-09-03T01:52:03.925Z,97515.41
2022-09-03T01:54:56.215Z,97513.50
2022-09-03T01:57:50.895Z,97522.72
2022-09-03T02:00:21.783Z,97528.34
2022-09-03T02:02:55.084Z,97517.44
2022-09-03T02:05:27.595Z,97512.91
2022-09-03T02:08:03.256Z,97521.25
2022-09-03T02:10:40.271Z,97521.34
2022-09-03T02:13:12.717Z,97514.69
2022-09-03T02:15:46.073Z,97526.88
2022-09-03T02:18:21.216Z,97530.72
2022-09-03T02:20:51.269Z,97528.50
2022-09-03T02:23:27.735Z,97529.66
2022-09-03T02:26:01.986Z,97536.63
2022-09-03T02:28:35.979Z,97539.06
2022-09-03T02:31:06.508Z,97536.84
2022-09-03T02:33:40.766Z,97538.09
2022-09-03T02:36:13.006Z,97530.22
2022-09-03T02:38:44.556Z,97537.25
2022-09-03T02:41:15.605Z,97542.53
2022-09-03T02:43:52.810Z,97532.66
2022-09-03T02:46:27.878Z,97532.66
2022-09-03T02:48:58.249Z,97541.22
2022-09-03T02:51:27.365Z,97534.31
2022-09-03T02:53:56.235Z,97541.41
2022-09-03T02:56:28.239Z,97549.09
2022-09-03T02:58:57.333Z,97543.41
2022-09-03T03:01:26.586Z,97537.00
2022-09-03T03:03:57.319Z,97542.94
2022-09-03T03:06:26.758Z,97544.47
2022-09-03T03:08:56.251Z,97543.94
2022-09-03T03:11:27.512Z,97554.25
2022-09-03T03:13:56.715Z,97558.75
2022-09-03T03:16:26.214Z,97557.56
2022-09-03T03:23:43.729Z,97543.25
2022-09-03T03:26:15.728Z,97541.88
2022-09-03T03:28:44.730Z,97544.03
2022-09-03T03:31:17.429Z,97544.31
2022-09-03T03:33:52.920Z,97549.94
2022-09-03T03:36:23.539Z,97543.31
2022-09-03T03:38:56.291Z,97535.59
2022-09-03T03:41:27.540Z,97548.66
2022-09-03T03:44:00.677Z,97553.09
2022-09-03T03:46:33.650Z,97551.03
2022-09-03T03:49:03.060Z,97547.34
2022-09-03T03:51:32.762Z,97547.00
2022-09-03T03:54:05.530Z,97550.44
2022-09-03T03:56:36.193Z,97548.06
2022-09-03T03:59:05.987Z,97548.63
2022-09-03T04:01:35.263Z,97554.13
2022-09-03T04:04:05.791Z,97554.66
2022-09-03T04:06:37.223Z,97559.41
2022-09-03T04:09:07.736Z,97563.03
2022-09-03T04:11:37.490Z,97557.56
2022-09-03T04:14:06.801Z,97552.69
2022-09-03T04:16:35.869Z,97541.00
2022-09-03T04:19:05.832Z,97536.44
2022-09-03T04:21:38.198Z,97539.41
2022-09-03T04:24:09.012Z,97535.06
2022-09-03T04:30:14.829Z,97538.72
2022-09-03T04:33:04.853Z,97534.63
2022-09-03T04:35:40.829Z,97536.00
2022-09-03T04:38:20.251Z,97532.50
2022-09-03T04:40:59.783Z,97537.41
2022-09-03T04:43:31.815Z,97529.59
2022-09-03T04:46:06.443Z,97537.66
2022-09-03T04:49:21.067Z,97537.47
2022-09-03T04:52:08.175Z,97538.03
2022-09-03T04:56:05.836Z,97551.56
2022-09-03T04:59:12.245Z,97542.53
2022-09-03T05:02:20.358Z,97537.38
2022-09-03T05:04:54.216Z,97538.91
2022-09-03T05:07:24.762Z,97542.38
2022-09-03T05:09:59.036Z,97552.00
2022-09-03T05:12:27.987Z,97553.09
2022-09-03T05:14:59.834Z,97552.78
2022-09-03T05:17:29.214Z,97550.91
2022-09-03T05:19:58.349Z,97556.44
2022-09-03T05:22:27.724Z,97551.09
2022-09-03T05:24:57.097Z,97545.25
2022-09-03T05:27:27.308Z,97545.81
2022-09-03T05:29:57.861Z,97548.81
2022-09-03T05:32:32.932Z,97542.63
2022-09-03T05:35:02.386Z,97546.16
2022-09-03T05:37:32.185Z,97550.41
2022-09-03T05:40:01.238Z,97554.38
2022-09-03T05:42:31.484Z,97552.53
2022-09-03T05:45:02.621Z,97552.78
2022-09-03T05:47:36.547Z,97542.41
2022-09-03T05:50:06.617Z,97543.25
2022-09-03T05:52:36.433Z,97547.22
2022-09-03T05:55:07.458Z,97553.78
2022-09-03T05:57:38.690Z,97543.91
2022-09-03T06:00:11.988Z,97539.16
2022-09-03T06:02:42.498Z,97546.06
2022-09-03T06:05:17.011Z,97543.56
2022-09-03T06:07:49.783Z,97547.72
2022-09-03T06:10:23.607Z,97558.00
2022-09-03T06:12:55.356Z,97553.75
2022-09-03T06:15:28.391Z,97550.66
2022-09-03T06:18:01.997Z,97547.44
2022-09-03T06:20:36.408Z,97547.84
2022-09-03T06:23:06.615Z,97553.06
2022-09-03T06:25:37.583Z,97545.25
2022-09-03T06:28:09.117Z,97550.13
2022-09-03T06:30:42.656Z,97543.00
2022-09-03T06:33:12.034Z,97552.72
2022-09-03T06:35:43.153Z,97536.22
2022-09-03T06:38:12.629Z,97537.72
2022-09-03T06:40:49.478Z,97532.50
2022-09-03T06:43:20.621Z,97540.88
2022-09-03T06:45:59.570Z,97547.00
2022-09-03T06:48:31.491Z,97540.22
2022-09-03T06:51:03.426Z,97540.84
2022-09-03T06:53:39.068Z,97536.84
2022-09-03T06:56:10.403Z,97534.16
2022-09-03T06:58:45.086Z,97526.44
2022-09-03T07:01:19.409Z,97530.88
2022-09-03T07:03:56.036Z,97525.13
2022-09-03T07:06:28.102Z,97532.44
2022-09-03T07:08:58.117Z,97527.84
2022-09-03T07:11:33.348Z,97527.06
2022-09-03T07:14:02.748Z,97538.56
2022-09-03T07:16:36.576Z,97533.75
2022-09-03T07:19:07.526Z,97547.28
2022-09-03T07:21:37.914Z,97536.53
2022-09-03T07:24:08.295Z,97536.16
2022-09-03T07:26:40.290Z,97535.44
2022-09-03T07:29:09.923Z,97537.81
2022-09-03T07:31:42.867Z,97532.78
2022-09-03T07:34:16.522Z,97533.97
2022-09-03T07:36:48.855Z,97533.91
2022-09-03T07:39:19.226Z,97532.13
2022-09-03T07:41:51.138Z,97532.91
2022-09-03T07:44:20.901Z,97542.59
2022-09-03T07:46:52.318Z,97533.47
2022-09-03T07:49:22.596Z,97533.03
2022-09-03T07:51:54.395Z,97537.88
2022-09-03T07:54:26.268Z,97534.75
2022-09-03T07:56:56.138Z,97534.78
2022-09-03T07:59:26.236Z,97535.63
2022-09-03T08:01:57.178Z,97536.44
2022-09-03T08:04:26.465Z,97539.28
2022-09-03T08:06:57.088Z,97538.09
2022-09-03T08:09:26.599Z,97539.47
2022-09-03T08:11:55.691Z,97540.66
2022-09-03T08:14:25.013Z,97544.97
2022-09-03T08:17:00.225Z,97542.69
2022-09-03T08:19:29.012Z,97541.22
2022-09-03T08:21:58.099Z,97542.53
2022-09-03T08:24:27.547Z,97539.34
2022-09-03T08:26:56.644Z,97542.34
2022-09-03T08:29:27.180Z,97541.91
2022-09-03T08:31:59.618Z,97541.16
2022-09-03T08:34:29.200Z,97543.50
2022-09-03T08:37:02.428Z,97531.63
2022-09-03T08:39:32.445Z,97535.13
2022-09-03T08:42:43.080Z,97527.66
2022-09-03T08:45:18.136Z,97532.25
2022-09-03T08:47:53.589Z,97529.50
2022-09-03T08:50:28.125Z,97527.97
2022-09-03T08:53:03.561Z,97524.31
2022-09-03T08:55:36.388Z,97532.25
2022-09-03T08:58:09.132Z,97527.50
2022-09-03T09:00:49.450Z,97523.53
2022-09-03T09:03:54.756Z,97520.75
2022-09-03T09:06:36.004Z,97526.28
2022-09-03T09:09:17.428Z,97528.25
2022-09-03T09:12:00.363Z,97528.28
2022-09-03T09:14:40.277Z,97539.53
2022-09-03T09:17:33.686Z,97534.78
2022-09-03T09:20:13.535Z,97535.25
2022-09-03T09:22:47.232Z,97534.31
2022-09-03T09:25:21.609Z,97538.59
2022-09-03T09:27:57.250Z,97539.63
2022-09-03T09:30:26.633Z,97528.53
2022-09-03T09:32:56.127Z,97536.78
2022-09-03T09:35:26.516Z,97533.69
2022-09-03T09:37:58.599Z,97530.31
2022-09-03T09:40:34.014Z,97525.66
2022-09-03T09:43:08.863Z,97525.38
2022-09-03T09:45:41.135Z,97531.16
2022-09-03T09:48:18.906Z,97524.53
2022-09-03T09:50:49.929Z,97520.31
2022-09-03T09:53:21.765Z,97519.03
2022-09-03T09:56:00.362Z,97530.22
2022-09-03T09:58:33.080Z,97533.50
2022-09-03T10:01:13.834Z,97530.22
2022-09-03T10:03:55.605Z,97528.66
2022-09-03T10:06:46.744Z,97528.66
2022-09-03T10:09:19.387Z,97532.25
2022-09-03T10:11:53.028Z,97529.09
2022-09-03T10:14:26.646Z,97537.34
2022-09-03T10:17:05.701Z,97522.72
2022-09-03T10:20:05.519Z,97523.72
2022-09-03T10:22:56.464Z,97532.25
2022-09-03T10:25:33.161Z,97529.38
2022-09-03T10:28:03.403Z,97537.66
2022-09-03T10:30:47.773Z,97539.03
2022-09-03T10:33:24.486Z,97540.72
2022-09-03T10:36:02.864Z,97543.63
2022-09-03T10:38:38.973Z,97540.53
2022-09-03T10:41:24.176Z,97540.59
2022-09-03T10:44:15.246Z,97538.97
2022-09-03T10:46:59.900Z,97521.78
2022-09-03T10:49:50.769Z,97515.13
2022-09-03T10:52:29.650Z,97516.06
2022-09-03T10:55:16.465Z,97508.25
2022-09-03T10:57:56.381Z,97509.38
2022-09-03T11:00:26.148Z,97510.75
2022-09-03T11:03:48.848Z,97513.22
2022-09-03T11:06:22.664Z,97505.75
2022-09-03T11:09:02.077Z,97508.78
2022-09-03T11:11:40.058Z,97514.06
2022-09-03T11:14:15.994Z,97512.34
2022-09-03T11:16:49.987Z,97510.56
2022-09-03T11:19:26.499Z,97505.75
2022-09-03T11:21:56.188Z,97506.16
2022-09-03T11:24:28.629Z,97511.25
2022-09-03T11:27:18.279Z,97502.81
2022-09-03T11:29:57.068Z,97501.75
2022-09-03T11:32:36.658Z,97493.34
2022-09-03T11:35:16.550Z,97486.13
2022-09-03T11:37:56.696Z,97490.97
2022-09-03T11:40:35.450Z,97487.41
2022-09-03T11:43:17.638Z,97482.50
2022-09-03T11:45:47.033Z,97492.47
2022-09-03T11:48:32.546Z,97498.41
2022-09-03T11:51:01.655Z,97500.28
2022-09-03T11:53:39.141Z,97500.09
2022-09-03T11:56:20.938Z,97497.78
2022-09-03T11:59:18.378Z,97493.03
2022-09-03T12:01:53.607Z,97488.00
2022-09-03T12:04:28.497Z,97492.56
2022-09-03T12:07:22.981Z,97491.31
2022-09-03T12:10:08.282Z,97486.91
2022-09-03T12:13:02.260Z,97482.16
2022-09-03T12:15:57.846Z,97471.41
2022-09-03T12:18:29.389Z,97477.25
2022-09-03T12:21:08.788Z,97483.63
2022-09-03T12:23:45.633Z,97479.78
2022-09-03T12:26:18.317Z,97487.66
2022-09-03T12:28:53.058Z,97483.19
2022-09-03T12:31:29.674Z,97476.50
2022-09-03T12:34:06.424Z,97471.16
2022-09-03T12:36:52.671Z,97469.72
2022-09-03T12:42:35.492Z,97454.03
2022-09-03T12:46:09.789Z,97457.88
2022-09-03T12:48:29.350Z,97446.06
2022-09-03T12:54:03.319Z,97438.34
2022-09-03T12:57:04.277Z,97435.97
2022-09-03T12:59:41.009Z,97432.97
2022-09-03T13:02:20.700Z,97431.34
2022-09-03T13:04:52.847Z,97427.06
2022-09-03T13:08:24.151Z,97427.69
2022-09-03T13:11:09.429Z,97428.47
2022-09-03T13:13:58.953Z,97420.78
2022-09-03T13:17:17.565Z,97428.59
2022-09-03T13:20:52.658Z,97416.66
2022-09-03T13:24:13.072Z,97420.16
2022-09-03T13:26:57.822Z,97420.91
2022-09-03T13:29:49.602Z,97425.69
2022-09-03T13:32:36.004Z,97413.31
2022-09-03T13:35:14.229Z,97411.50
2022-09-03T13:37:49.393Z,97412.69
2022-09-03T13:40:44.369Z,97407.72
2022-09-03T13:43:32.416Z,97403.34
2022-09-03T13:46:08.340Z,97400.81
2022-09-03T13:48:59.402Z,97403.06
2022-09-03T13:51:33.130Z,97403.53
2022-09-03T13:54:30.966Z,97410.72
2022-09-03T13:57:32.714Z,97400.69
2022-09-03T14:00:16.995Z,97398.78
2022-09-03T14:02:59.151Z,97400.81
2022-09-03T14:06:02.130Z,97395.91
2022-09-03T14:09:01.205Z,97394.19
2022-09-03T14:15:08.064Z,97399.00
2022-09-03T14:17:51.153Z,97391.03
2022-09-03T14:20:28.214Z,97392.88
2022-09-03T14:23:05.294Z,97388.53
2022-09-03T14:25:35.820Z,97388.47
2022-09-03T14:28:31.426Z,97388.78
2022-09-03T14:31:16.240Z,97392.69
2022-09-03T14:33:57.276Z,97386.13
2022-09-03T14:36:36.496Z,97386.69
2022-09-03T14:39:36.500Z,97389.22
2022-09-03T14:42:57.749Z,97390.09
2022-09-03T14:45:54.240Z,97390.41
2022-09-03T14:49:12.068Z,97381.28
2022-09-03T14:51:59.294Z,97387.06
2022-09-03T14:55:16.081Z,97388.13
2022-09-03T14:58:23.520Z,97393.81
2022-09-03T15:01:02.024Z,97389.78
2022-09-03T15:04:15.594Z,97390.13
2022-09-03T15:07:08.780Z,97392.13
2022-09-03T15:09:44.926Z,97384.81
2022-09-03T15:12:26.556Z,97392.41
2022-09-03T15:15:00.152Z,97385.13
2022-09-03T15:17:49.730Z,97381.13
2022-09-03T15:20:25.713Z,97387.13
2022-09-03T15:23:43.507Z,97382.84
2022-09-03T15:26:42.781Z,97376.06
2022-09-03T15:29:47.728Z,97382.91
2022-09-03T15:32:35.858Z,97392.78
2022-09-03T15:35:12.671Z,97388.00
2022-09-03T15:37:51.440Z,97390.00
2022-09-03T15:40:33.180Z,97396.03
2022-09-03T15:43:12.712Z,97397.03
2022-09-03T15:45:58.638Z,97397.53
2022-09-03T15:48:39.595Z,97396.03
2022-09-03T15:51:18.643Z,97405.59
2022-09-03T15:53:55.099Z,97402.56
2022-09-03T15:56:30.500Z,97398.53
2022-09-03T15:59:15.785Z,97398.94
2022-09-03T16:01:55.359Z,97404.50
2022-09-03T16:04:45.012Z,97418.56
2022-09-03T16:07:32.192Z,97418.53
2022-09-03T16:10:26.500Z,97412.00
2022-09-03T16:13:08.062Z,97411.75
2022-09-03T16:15:45.710Z,97416.28
2022-09-03T16:18:26.106Z,97411.19
2022-09-03T16:21:02.687Z,97408.91
2022-09-03T16:23:39.708Z,97414.88
2022-09-03T16:26:15.728Z,97414.13
2022-09-03T16:28:50.254Z,97411.28
2022-09-03T16:31:40.018Z,97422.59
2022-09-03T16:34:19.069Z,97421.53
2022-09-03T16:37:01.971Z,97418.00
2022-09-03T16:39:50.150Z,97417.81
2022-09-03T16:42:30.767Z,97406.34
2022-09-03T16:45:19.900Z,97418.47
2022-09-03T16:48:26.697Z,97419.44
2022-09-03T16:51:12.153Z,97417.88
2022-09-03T16:54:06.250Z,97411.53
2022-09-03T16:56:56.126Z,97417.88
2022-09-03T16:59:57.684Z,97415.72
2022-09-03T17:03:13.749Z,97419.38
2022-09-03T17:06:18.405Z,97420.41
2022-09-03T17:09:01.912Z,97425.84
2022-09-03T17:11:48.850Z,97427.19
2022-09-03T17:14:51.867Z,97432.13
2022-09-03T17:17:38.512Z,97432.63
2022-09-03T17:20:15.432Z,97433.59
2022-09-03T17:23:00.394Z,97437.50
2022-09-03T17:25:37.937Z,97438.47
2022-09-03T17:28:26.723Z,97435.44
2022-09-03T17:31:00.113Z,97434.06
2022-09-03T17:33:53.630Z,97441.03
2022-09-03T17:36:27.404Z,97441.63
2022-09-03T17:39:31.166Z,97450.59
2022-09-03T17:42:06.477Z,97447.56
2022-09-03T17:44:49.591Z,97446.19
2022-09-03T17:47:54.937Z,97445.81
2022-09-03T17:50:27.864Z,97452.00
2022-09-03T17:53:01.795Z,97453.78
2022-09-03T17:55:36.978Z,97456.97
2022-09-03T17:58:15.404Z,97451.66
2022-09-03T18:00:54.667Z,97453.38
2022-09-03T18:03:30.272Z,97450.00
2022-09-03T18:06:04.530Z,97461.44
2022-09-03T18:08:44.940Z,97450.41
2022-09-03T18:11:20.184Z,97455.09
2022-09-03T18:14:04.354Z,97457.84
2022-09-03T18:16:36.014Z,97460.06
2022-09-03T18:19:18.152Z,97461.50
2022-09-03T18:22:08.010Z,97451.91
2022-09-03T18:25:02.602Z,97457.34
2022-09-03T18:27:55.861Z,97457.91
2022-09-03T18:30:44.688Z,97462.88
2022-09-03T18:33:34.568Z,97459.56
2022-09-03T18:36:21.621Z,97459.66
2022-09-03T18:39:08.256Z,97462.03
2022-09-03T18:42:15.130Z,97463.78
2022-09-03T18:45:23.120Z,97475.06
2022-09-03T18:48:26.360Z,97471.84
2022-09-03T18:51:24.569Z,97471.44
2022-09-03T18:54:45.089Z,97482.28
2022-09-03T18:57:42.446Z,97484.94
2022-09-03T19:00:31.096Z,97487.41
2022-09-03T19:03:46.042Z,97487.66
2022-09-03T19:06:45.456Z,97485.97
2022-09-03T19:09:50.017Z,97487.78
2022-09-03T19:12:58.958Z,97486.22
2022-09-03T19:15:50.943Z,97502.53
2022-09-03T19:18:56.671Z,97508.03
2022-09-03T19:21:50.843Z,97512.94
2022-09-03T19:24:45.742Z,97524.28
2022-09-03T19:27:58.604Z,97523.72
2022-09-03T19:30:59.845Z,97524.09
2022-09-03T19:33:53.923Z,97527.13
2022-09-03T19:36:46.099Z,97524.66
2022-09-03T19:39:44.040Z,97517.13
2022-09-03T19:42:37.098Z,97530.22
2022-09-03T19:45:31.234Z,97539.00
2022-09-03T19:48:27.789Z,97528.53
2022-09-03T19:51:23.354Z,97527.34
2022-09-03T19:54:09.967Z,97527.13
2022-09-03T19:56:57.889Z,97521.91
2022-09-03T19:59:45.781Z,97527.00
2022-09-03T20:02:33.065Z,97528.81
2022-09-03T20:05:21.383Z,97528.44
2022-09-03T20:08:12.835Z,97521.94
2022-09-03T20:10:44.767Z,97536.13
2022-09-03T20:13:16.302Z,97538.75
2022-09-03T20:15:52.626Z,97540.25
2022-09-03T20:18:31.619Z,97540.75
2022-09-03T20:21:11.367Z,97544.16
2022-09-03T20:23:48.999Z,97539.09
2022-09-03T20:26:25.979Z,97545.50
2022-09-03T20:29:05.678Z,97547.88
2022-09-03T20:31:45.839Z,97552.50
2022-09-03T20:34:28.402Z,97547.00
2022-09-03T20:37:04.702Z,97546.91
2022-09-03T20:39:48.287Z,97555.03
2022-09-03T20:42:37.224Z,97555.63
2022-09-03T20:45:12.014Z,97549.22
2022-09-03T20:48:01.769Z,97558.69
2022-09-03T20:50:43.743Z,97548.00
2022-09-03T20:53:28.507Z,97545.13
2022-09-03T20:56:03.683Z,97541.94
2022-09-03T20:58:43.877Z,97548.34
2022-09-03T21:01:17.918Z,97548.44
2022-09-03T21:03:53.257Z,97553.53
2022-09-03T21:06:31.994Z,97550.28
2022-09-03T21:09:09.263Z,97545.59
2022-09-03T21:11:50.133Z,97546.50
2022-09-03T21:14:26.964Z,97545.34
2022-09-03T21:17:06.935Z,97547.63
2022-09-03T21:19:45.327Z,97553.75
2022-09-03T21:22:23.222Z,97551.31
2022-09-03T21:24:57.892Z,97551.19
2022-09-03T21:27:37.678Z,97559.63
2022-09-03T21:30:11.781Z,97555.34
2022-09-03T21:32:48.256Z,97556.72
2022-09-03T21:35:24.194Z,97560.94
2022-09-03T21:38:00.253Z,97559.31
2022-09-03T21:40:32.619Z,97564.03
2022-09-03T21:43:14.467Z,97571.19
2022-09-03T21:45:53.241Z,97571.47
2022-09-03T21:48:28.259Z,97565.22
2022-09-03T21:51:00.252Z,97565.41
2022-09-03T21:53:38.088Z,97567.16
2022-09-03T21:56:25.701Z,97568.09
2022-09-03T21:59:13.403Z,97570.19
2022-09-03T22:01:58.423Z,97575.66
2022-09-03T22:04:28.853Z,97565.91
2022-09-03T22:07:09.559Z,97572.31
2022-09-03T22:09:47.900Z,97566.53
2022-09-03T22:12:22.210Z,97571.13
2022-09-03T22:14:56.812Z,97579.56
2022-09-03T22:17:46.203Z,97582.44
2022-09-03T22:20:20.139Z,97576.28
2022-09-03T22:22:56.671Z,97567.41
2022-09-03T22:25:37.976Z,97570.03
2022-09-03T22:28:13.448Z,97564.84
2022-09-03T22:30:50.369Z,97576.03
2022-09-03T22:33:29.823Z,97576.72
2022-09-03T22:36:14.716Z,97576.81
2022-09-03T22:39:17.054Z,97580.53
2022-09-03T22:42:10.004Z,97584.22
2022-09-03T22:45:11.541Z,97591.69
2022-09-03T22:47:54.667Z,97595.06
2022-09-03T22:50:30.520Z,97607.47
2022-09-03T22:53:17.160Z,97598.31
2022-09-03T22:55:53.965Z,97592.53
2022-09-03T22:58:28.822Z,97590.00
2022-09-03T23:01:10.397Z,97590.22
2022-09-03T23:03:46.911Z,97595.88
2022-09-03T23:06:25.686Z,97591.84
2022-09-03T23:09:01.460Z,97596.00
2022-09-03T23:11:35.994Z,97593.09
2022-09-03T23:14:09.842Z,97610.72
2022-09-03T23:16:43.998Z,97614.53
2022-09-03T23:21:55.084Z,97625.81
2022-09-03T23:24:32.064Z,97631.47
2022-09-03T23:27:06.753Z,97624.47
2022-09-03T23:29:42.924Z,97617.81
2022-09-03T23:32:12.085Z,97610.22
2022-09-03T23:34:42.555Z,97605.44
2022-09-03T23:37:34.204Z,97606.22
2022-09-03T23:40:26.188Z,97609.63
2022-09-03T23:43:22.749Z,97606.59
2022-09-03T23:46:03.449Z,97591.59
2022-09-03T23:48:46.566Z,97589.47
2022-09-03T23:51:31.388Z,97576.38
2022-09-03T23:54:14.303Z,97571.66
2022-09-03T23:57:14.702Z,97582.06
